sensor_id;sensor_type;location;lat;lon;timestamp;P1;P2;P0
78063;PMS5003;67429;51.596;-3.264;2023-07-20T00:00:53;5;5;
78063;PMS5003;67429;51.596;-3.264;2023-07-20T00:03:19;4;4;
78063;PMS5003;67429;51.596;-3.264;2023-07-20T00:05:44;7;7;
78063;PMS5003;67429;51.596;-3.264;2023-07-20T00:08:10;5;5;
78063;PMS5003;67429;51.596;-3.264;2023-07-20T00:10:35;6;6;
78063;PMS5003;67429;51.596;-3.264;2023-07-20T00:13:01;6;6;
78063;PMS5003;67429;51.596;-3.264;2023-07-20T00:15:27;5;5;
78063;PMS5003;67429;51.596;-3.264;2023-07-20T00:17:52;8;8;
78063;PMS5003;67429;51.596;-3.264;2023-07-20T00:20:18;6;6;
78063;PMS5003;67429;51.596;-3.264;2023-07-20T00:22:44;6;6;
78063;PMS5003;67429;51.596;-3.264;2023-07-20T00:25:09;6;6;
78063;PMS5003;67429;51.596;-3.264;2023-07-20T00:27:35;8;6;
78063;PMS5003;67429;51.596;-3.264;2023-07-20T00:30:01;6;6;
78063;PMS5003;67429;51.596;-3.264;2023-07-20T00:32:26;5;5;
78063;PMS5003;67429;51.596;-3.264;2023-07-20T00:34:52;6;6;
78063;PMS5003;67429;51.596;-3.264;2023-07-20T00:37:17;6;6;
78063;PMS5003;67429;51.596;-3.264;2023-07-20T00:39:43;4;4;
78063;PMS5003;67429;51.596;-3.264;2023-07-20T00:42:09;6;5;
78063;PMS5003;67429;51.596;-3.264;2023-07-20T00:44:34;7;7;
78063;PMS5003;67429;51.596;-3.264;2023-07-20T00:47:00;5;4;
78063;PMS5003;67429;51.596;-3.264;2023-07-20T00:49:26;5;5;
78063;PMS5003;67429;51.596;-3.264;2023-07-20T00:51:51;6;6;
78063;PMS5003;67429;51.596;-3.264;2023-07-20T00:54:17;5;5;
78063;PMS5003;67429;51.596;-3.264;2023-07-20T00:56:43;6;6;
78063;PMS5003;67429;51.596;-3.264;2023-07-20T00:59:08;4;4;
78063;PMS5003;67429;51.596;-3.264;2023-07-20T01:01:35;4;4;
78063;PMS5003;67429;51.596;-3.264;2023-07-20T01:03:59;7;6;
78063;PMS5003;67429;51.596;-3.264;2023-07-20T01:06:28;6;6;
78063;PMS5003;67429;51.596;-3.264;2023-07-20T01:08:53;6;5;
78063;PMS5003;67429;51.596;-3.264;2023-07-20T01:11:18;5;5;
78063;PMS5003;67429;51.596;-3.264;2023-07-20T01:13:43;5;5;
78063;PMS5003;67429;51.596;-3.264;2023-07-20T01:16:08;6;6;
78063;PMS5003;67429;51.596;-3.264;2023-07-20T01:18:33;7;7;
78063;PMS5003;67429;51.596;-3.264;2023-07-20T01:20:59;6;6;
78063;PMS5003;67429;51.596;-3.264;2023-07-20T01:23:33;6;6;
78063;PMS5003;67429;51.596;-3.264;2023-07-20T01:25:57;5;5;
78063;PMS5003;67429;51.596;-3.264;2023-07-20T01:28:22;6;5;
78063;PMS5003;67429;51.596;-3.264;2023-07-20T01:30:45;6;6;
78063;PMS5003;67429;51.596;-3.264;2023-07-20T01:33:07;8;7;
78063;PMS5003;67429;51.596;-3.264;2023-07-20T01:35:33;7;6;
78063;PMS5003;67429;51.596;-3.264;2023-07-20T01:37:59;7;7;
78063;PMS5003;67429;51.596;-3.264;2023-07-20T01:40:24;6;6;
78063;PMS5003;67429;51.596;-3.264;2023-07-20T01:42:50;7;6;
78063;PMS5003;67429;51.596;-3.264;2023-07-20T01:45:16;6;6;
78063;PMS5003;67429;51.596;-3.264;2023-07-20T01:47:41;6;6;
78063;PMS5003;67429;51.596;-3.264;2023-07-20T01:50:07;5;5;
78063;PMS5003;67429;51.596;-3.264;2023-07-20T01:52:33;6;6;
78063;PMS5003;67429;51.596;-3.264;2023-07-20T01:54:58;6;6;
78063;PMS5003;67429;51.596;-3.264;2023-07-20T01:57:24;5;5;
78063;PMS5003;67429;51.596;-3.264;2023-07-20T01:59:50;6;6;
78063;PMS5003;67429;51.596;-3.264;2023-07-20T02:02:15;8;8;
78063;PMS5003;67429;51.596;-3.264;2023-07-20T02:04:41;7;7;
78063;PMS5003;67429;51.596;-3.264;2023-07-20T02:07:06;5;5;
78063;PMS5003;67429;51.596;-3.264;2023-07-20T02:09:32;6;6;
78063;PMS5003;67429;51.596;-3.264;2023-07-20T02:11:58;6;6;
78063;PMS5003;67429;51.596;-3.264;2023-07-20T02:14:23;6;6;
78063;PMS5003;67429;51.596;-3.264;2023-07-20T02:16:49;6;6;
78063;PMS5003;67429;51.596;-3.264;2023-07-20T02:19:15;6;6;
78063;PMS5003;67429;51.596;-3.264;2023-07-20T02:21:40;7;6;
78063;PMS5003;67429;51.596;-3.264;2023-07-20T02:24:06;6;6;
78063;PMS5003;67429;51.596;-3.264;2023-07-20T02:26:32;5;5;
78063;PMS5003;67429;51.596;-3.264;2023-07-20T02:28:57;5;5;
78063;PMS5003;67429;51.596;-3.264;2023-07-20T02:31:23;7;7;
78063;PMS5003;67429;51.596;-3.264;2023-07-20T02:33:49;5;5;
78063;PMS5003;67429;51.596;-3.264;2023-07-20T02:36:14;7;7;
78063;PMS5003;67429;51.596;-3.264;2023-07-20T02:38:41;7;7;
78063;PMS5003;67429;51.596;-3.264;2023-07-20T02:41:06;5;5;
78063;PMS5003;67429;51.596;-3.264;2023-07-20T02:43:31;5;5;
78063;PMS5003;67429;51.596;-3.264;2023-07-20T02:45:57;6;5;
78063;PMS5003;67429;51.596;-3.264;2023-07-20T02:48:23;5;4;
78063;PMS5003;67429;51.596;-3.264;2023-07-20T02:50:48;5;4;
78063;PMS5003;67429;51.596;-3.264;2023-07-20T02:53:14;4;4;
78063;PMS5003;67429;51.596;-3.264;2023-07-20T02:55:39;9;9;
78063;PMS5003;67429;51.596;-3.264;2023-07-20T02:58:05;7;7;
78063;PMS5003;67429;51.596;-3.264;2023-07-20T03:00:31;7;6;
78063;PMS5003;67429;51.596;-3.264;2023-07-20T03:02:56;5;5;
78063;PMS5003;67429;51.596;-3.264;2023-07-20T03:05:22;4;4;
78063;PMS5003;67429;51.596;-3.264;2023-07-20T03:07:48;5;5;
78063;PMS5003;67429;51.596;-3.264;2023-07-20T03:10:13;5;5;
78063;PMS5003;67429;51.596;-3.264;2023-07-20T03:12:39;4;4;
78063;PMS5003;67429;51.596;-3.264;2023-07-20T03:15:05;6;6;
78063;PMS5003;67429;51.596;-3.264;2023-07-20T03:17:30;5;5;
78063;PMS5003;67429;51.596;-3.264;2023-07-20T03:19:56;7;7;
78063;PMS5003;67429;51.596;-3.264;2023-07-20T03:22:22;6;5;
78063;PMS5003;67429;51.596;-3.264;2023-07-20T03:24:48;6;6;
78063;PMS5003;67429;51.596;-3.264;2023-07-20T03:27:13;7;6;
78063;PMS5003;67429;51.596;-3.264;2023-07-20T03:29:39;6;6;
78063;PMS5003;67429;51.596;-3.264;2023-07-20T03:32:04;7;7;
78063;PMS5003;67429;51.596;-3.264;2023-07-20T03:34:29;6;6;
78063;PMS5003;67429;51.596;-3.264;2023-07-20T03:36:55;5;5;
78063;PMS5003;67429;51.596;-3.264;2023-07-20T03:39:22;6;6;
78063;PMS5003;67429;51.596;-3.264;2023-07-20T03:41:46;6;6;
78063;PMS5003;67429;51.596;-3.264;2023-07-20T03:44:12;6;6;
78063;PMS5003;67429;51.596;-3.264;2023-07-20T03:46:38;5;5;
78063;PMS5003;67429;51.596;-3.264;2023-07-20T03:49:03;7;7;
78063;PMS5003;67429;51.596;-3.264;2023-07-20T03:51:29;6;6;
78063;PMS5003;67429;51.596;-3.264;2023-07-20T03:53:55;5;5;
78063;PMS5003;67429;51.596;-3.264;2023-07-20T03:56:20;6;5;
78063;PMS5003;67429;51.596;-3.264;2023-07-20T03:58:46;6;5;
78063;PMS5003;67429;51.596;-3.264;2023-07-20T04:01:12;6;6;
78063;PMS5003;67429;51.596;-3.264;2023-07-20T04:03:37;4;4;
78063;PMS5003;67429;51.596;-3.264;2023-07-20T04:06:03;5;5;
78063;PMS5003;67429;51.596;-3.264;2023-07-20T04:08:28;7;7;
78063;PMS5003;67429;51.596;-3.264;2023-07-20T04:10:54;6;6;
78063;PMS5003;67429;51.596;-3.264;2023-07-20T04:13:20;8;7;
78063;PMS5003;67429;51.596;-3.264;2023-07-20T04:15:46;4;4;
78063;PMS5003;67429;51.596;-3.264;2023-07-20T04:18:11;6;6;
78063;PMS5003;67429;51.596;-3.264;2023-07-20T04:20:37;5;5;
78063;PMS5003;67429;51.596;-3.264;2023-07-20T04:23:03;6;6;
78063;PMS5003;67429;51.596;-3.264;2023-07-20T04:25:28;7;6;
78063;PMS5003;67429;51.596;-3.264;2023-07-20T04:27:54;7;7;
78063;PMS5003;67429;51.596;-3.264;2023-07-20T04:30:19;7;6;
78063;PMS5003;67429;51.596;-3.264;2023-07-20T04:32:45;7;7;
78063;PMS5003;67429;51.596;-3.264;2023-07-20T04:35:10;7;7;
78063;PMS5003;67429;51.596;-3.264;2023-07-20T04:37:36;9;7;
78063;PMS5003;67429;51.596;-3.264;2023-07-20T04:40:02;7;6;
78063;PMS5003;67429;51.596;-3.264;2023-07-20T04:42:27;8;8;
78063;PMS5003;67429;51.596;-3.264;2023-07-20T04:44:53;6;6;
78063;PMS5003;67429;51.596;-3.264;2023-07-20T04:47:19;10;8;
78063;PMS5003;67429;51.596;-3.264;2023-07-20T04:49:45;13;12;
78063;PMS5003;67429;51.596;-3.264;2023-07-20T04:52:10;8;8;
78063;PMS5003;67429;51.596;-3.264;2023-07-20T04:54:35;7;7;
78063;PMS5003;67429;51.596;-3.264;2023-07-20T04:57:01;9;8;
78063;PMS5003;67429;51.596;-3.264;2023-07-20T04:59:27;8;7;
78063;PMS5003;67429;51.596;-3.264;2023-07-20T05:01:52;5;5;
78063;PMS5003;67429;51.596;-3.264;2023-07-20T05:04:18;8;7;
78063;PMS5003;67429;51.596;-3.264;2023-07-20T05:06:44;10;8;
78063;PMS5003;67429;51.596;-3.264;2023-07-20T05:09:09;8;8;
78063;PMS5003;67429;51.596;-3.264;2023-07-20T05:11:35;7;7;
78063;PMS5003;67429;51.596;-3.264;2023-07-20T05:14:01;8;7;
78063;PMS5003;67429;51.596;-3.264;2023-07-20T05:16:26;8;7;
78063;PMS5003;67429;51.596;-3.264;2023-07-20T05:18:52;7;6;
78063;PMS5003;67429;51.596;-3.264;2023-07-20T05:21:18;9;8;
78063;PMS5003;67429;51.596;-3.264;2023-07-20T05:23:43;8;7;
78063;PMS5003;67429;51.596;-3.264;2023-07-20T05:26:09;8;7;
78063;PMS5003;67429;51.596;-3.264;2023-07-20T05:28:35;8;8;
78063;PMS5003;67429;51.596;-3.264;2023-07-20T05:31:02;7;7;
78063;PMS5003;67429;51.596;-3.264;2023-07-20T05:33:26;9;9;
78063;PMS5003;67429;51.596;-3.264;2023-07-20T05:35:52;7;7;
78063;PMS5003;67429;51.596;-3.264;2023-07-20T05:38:17;7;7;
78063;PMS5003;67429;51.596;-3.264;2023-07-20T05:40:44;7;7;
78063;PMS5003;67429;51.596;-3.264;2023-07-20T05:43:10;7;6;
78063;PMS5003;67429;51.596;-3.264;2023-07-20T05:45:34;6;6;
78063;PMS5003;67429;51.596;-3.264;2023-07-20T05:48:00;7;7;
78063;PMS5003;67429;51.596;-3.264;2023-07-20T05:50:26;6;6;
78063;PMS5003;67429;51.596;-3.264;2023-07-20T05:52:56;8;8;
78063;PMS5003;67429;51.596;-3.264;2023-07-20T05:55:17;7;7;
78063;PMS5003;67429;51.596;-3.264;2023-07-20T05:57:42;7;7;
78063;PMS5003;67429;51.596;-3.264;2023-07-20T06:00:08;9;8;
78063;PMS5003;67429;51.596;-3.264;2023-07-20T06:02:34;7;7;
78063;PMS5003;67429;51.596;-3.264;2023-07-20T06:04:59;8;8;
78063;PMS5003;67429;51.596;-3.264;2023-07-20T06:07:25;6;6;
78063;PMS5003;67429;51.596;-3.264;2023-07-20T06:09:50;6;6;
78063;PMS5003;67429;51.596;-3.264;2023-07-20T06:12:16;10;8;
78063;PMS5003;67429;51.596;-3.264;2023-07-20T06:14:42;7;7;
78063;PMS5003;67429;51.596;-3.264;2023-07-20T06:17:07;9;8;
78063;PMS5003;67429;51.596;-3.264;2023-07-20T06:19:33;7;7;
78063;PMS5003;67429;51.596;-3.264;2023-07-20T06:21:58;7;7;
78063;PMS5003;67429;51.596;-3.264;2023-07-20T06:24:24;7;7;
78063;PMS5003;67429;51.596;-3.264;2023-07-20T06:26:49;6;6;
78063;PMS5003;67429;51.596;-3.264;2023-07-20T06:29:15;6;6;
78063;PMS5003;67429;51.596;-3.264;2023-07-20T06:31:41;6;6;
78063;PMS5003;67429;51.596;-3.264;2023-07-20T06:34:06;7;7;
78063;PMS5003;67429;51.596;-3.264;2023-07-20T06:36:32;8;8;
78063;PMS5003;67429;51.596;-3.264;2023-07-20T06:38:57;7;7;
78063;PMS5003;67429;51.596;-3.264;2023-07-20T06:41:23;6;6;
78063;PMS5003;67429;51.596;-3.264;2023-07-20T06:43:48;6;6;
78063;PMS5003;67429;51.596;-3.264;2023-07-20T06:46:14;8;8;
78063;PMS5003;67429;51.596;-3.264;2023-07-20T06:48:39;5;5;
78063;PMS5003;67429;51.596;-3.264;2023-07-20T06:51:05;6;6;
78063;PMS5003;67429;51.596;-3.264;2023-07-20T06:53:30;6;5;
78063;PMS5003;67429;51.596;-3.264;2023-07-20T06:55:56;6;6;
78063;PMS5003;67429;51.596;-3.264;2023-07-20T06:58:22;6;6;
78063;PMS5003;67429;51.596;-3.264;2023-07-20T07:00:47;8;8;
78063;PMS5003;67429;51.596;-3.264;2023-07-20T07:03:13;8;8;
78063;PMS5003;67429;51.596;-3.264;2023-07-20T07:05:38;5;5;
78063;PMS5003;67429;51.596;-3.264;2023-07-20T07:08:05;8;8;
78063;PMS5003;67429;51.596;-3.264;2023-07-20T07:10:29;5;5;
78063;PMS5003;67429;51.596;-3.264;2023-07-20T07:12:54;6;6;
78063;PMS5003;67429;51.596;-3.264;2023-07-20T07:15:21;10;10;
78063;PMS5003;67429;51.596;-3.264;2023-07-20T07:17:46;13;12;
78063;PMS5003;67429;51.596;-3.264;2023-07-20T07:20:11;5;5;
78063;PMS5003;67429;51.596;-3.264;2023-07-20T07:22:36;7;7;
78063;PMS5003;67429;51.596;-3.264;2023-07-20T07:25:03;7;7;
78063;PMS5003;67429;51.596;-3.264;2023-07-20T07:27:27;9;9;
78063;PMS5003;67429;51.596;-3.264;2023-07-20T07:29:53;9;9;
78063;PMS5003;67429;51.596;-3.264;2023-07-20T07:32:18;9;9;
78063;PMS5003;67429;51.596;-3.264;2023-07-20T07:34:44;8;8;
78063;PMS5003;67429;51.596;-3.264;2023-07-20T07:37:09;8;8;
78063;PMS5003;67429;51.596;-3.264;2023-07-20T07:39:34;7;6;
78063;PMS5003;67429;51.596;-3.264;2023-07-20T07:42:01;6;6;
78063;PMS5003;67429;51.596;-3.264;2023-07-20T07:44:26;7;7;
78063;PMS5003;67429;51.596;-3.264;2023-07-20T07:46:53;7;7;
78063;PMS5003;67429;51.596;-3.264;2023-07-20T07:49:18;4;4;
78063;PMS5003;67429;51.596;-3.264;2023-07-20T07:51:42;5;5;
78063;PMS5003;67429;51.596;-3.264;2023-07-20T07:54:09;4;4;
78063;PMS5003;67429;51.596;-3.264;2023-07-20T07:56:33;5;4;
78063;PMS5003;67429;51.596;-3.264;2023-07-20T07:59:00;5;5;
78063;PMS5003;67429;51.596;-3.264;2023-07-20T08:01:25;3;3;
78063;PMS5003;67429;51.596;-3.264;2023-07-20T08:03:49;3;3;
78063;PMS5003;67429;51.596;-3.264;2023-07-20T08:06:15;4;4;
78063;PMS5003;67429;51.596;-3.264;2023-07-20T08:08:40;3;3;
78063;PMS5003;67429;51.596;-3.264;2023-07-20T08:11:05;4;4;
78063;PMS5003;67429;51.596;-3.264;2023-07-20T08:13:31;3;3;
78063;PMS5003;67429;51.596;-3.264;2023-07-20T08:15:56;3;3;
78063;PMS5003;67429;51.596;-3.264;2023-07-20T08:18:22;4;4;
78063;PMS5003;67429;51.596;-3.264;2023-07-20T08:20:49;5;5;
78063;PMS5003;67429;51.596;-3.264;2023-07-20T08:23:13;4;4;
78063;PMS5003;67429;51.596;-3.264;2023-07-20T08:25:38;4;3;
78063;PMS5003;67429;51.596;-3.264;2023-07-20T08:28:04;5;5;
78063;PMS5003;67429;51.596;-3.264;2023-07-20T08:30:38;5;5;
78063;PMS5003;67429;51.596;-3.264;2023-07-20T08:32:54;4;4;
78063;PMS5003;67429;51.596;-3.264;2023-07-20T08:35:20;3;3;
78063;PMS5003;67429;51.596;-3.264;2023-07-20T08:37:47;4;4;
78063;PMS5003;67429;51.596;-3.264;2023-07-20T08:40:13;6;6;
78063;PMS5003;67429;51.596;-3.264;2023-07-20T08:42:36;6;6;
78063;PMS5003;67429;51.596;-3.264;2023-07-20T08:45:02;6;6;
78063;PMS5003;67429;51.596;-3.264;2023-07-20T08:47:27;4;4;
78063;PMS5003;67429;51.596;-3.264;2023-07-20T08:49:53;5;5;
78063;PMS5003;67429;51.596;-3.264;2023-07-20T08:52:20;6;5;
78063;PMS5003;67429;51.596;-3.264;2023-07-20T08:54:46;3;3;
78063;PMS5003;67429;51.596;-3.264;2023-07-20T08:57:11;5;5;
78063;PMS5003;67429;51.596;-3.264;2023-07-20T08:59:35;5;5;
78063;PMS5003;67429;51.596;-3.264;2023-07-20T09:02:00;5;5;
78063;PMS5003;67429;51.596;-3.264;2023-07-20T09:04:25;4;4;
78063;PMS5003;67429;51.596;-3.264;2023-07-20T09:06:51;7;6;
78063;PMS5003;67429;51.596;-3.264;2023-07-20T09:09:16;6;6;
78063;PMS5003;67429;51.596;-3.264;2023-07-20T09:11:43;5;5;
78063;PMS5003;67429;51.596;-3.264;2023-07-20T09:14:07;5;5;
78063;PMS5003;67429;51.596;-3.264;2023-07-20T09:16:33;6;5;
78063;PMS5003;67429;51.596;-3.264;2023-07-20T09:18:58;4;4;
78063;PMS5003;67429;51.596;-3.264;2023-07-20T09:21:23;7;7;
78063;PMS5003;67429;51.596;-3.264;2023-07-20T09:23:49;7;7;
78063;PMS5003;67429;51.596;-3.264;2023-07-20T09:26:14;6;5;
78063;PMS5003;67429;51.596;-3.264;2023-07-20T09:28:42;5;5;
78063;PMS5003;67429;51.596;-3.264;2023-07-20T09:31:08;9;9;
78063;PMS5003;67429;51.596;-3.264;2023-07-20T09:33:30;7;7;
78063;PMS5003;67429;51.596;-3.264;2023-07-20T09:38:22;7;7;
78063;PMS5003;67429;51.596;-3.264;2023-07-20T09:40:47;9;9;
78063;PMS5003;67429;51.596;-3.264;2023-07-20T09:43:12;7;7;
78063;PMS5003;67429;51.596;-3.264;2023-07-20T09:45:40;7;7;
78063;PMS5003;67429;51.596;-3.264;2023-07-20T09:48:03;9;8;
78063;PMS5003;67429;51.596;-3.264;2023-07-20T09:50:28;7;7;
78063;PMS5003;67429;51.596;-3.264;2023-07-20T09:52:54;7;7;
78063;PMS5003;67429;51.596;-3.264;2023-07-20T09:55:20;8;8;
78063;PMS5003;67429;51.596;-3.264;2023-07-20T09:57:45;9;9;
78063;PMS5003;67429;51.596;-3.264;2023-07-20T10:00:10;9;9;
78063;PMS5003;67429;51.596;-3.264;2023-07-20T10:02:36;12;11;
78063;PMS5003;67429;51.596;-3.264;2023-07-20T10:05:02;9;9;
78063;PMS5003;67429;51.596;-3.264;2023-07-20T10:07:27;11;11;
78063;PMS5003;67429;51.596;-3.264;2023-07-20T10:09:52;8;8;
78063;PMS5003;67429;51.596;-3.264;2023-07-20T10:12:18;11;10;
78063;PMS5003;67429;51.596;-3.264;2023-07-20T10:14:46;12;10;
78063;PMS5003;67429;51.596;-3.264;2023-07-20T10:17:09;10;10;
78063;PMS5003;67429;51.596;-3.264;2023-07-20T10:19:40;9;9;
78063;PMS5003;67429;51.596;-3.264;2023-07-20T10:22:00;10;10;
78063;PMS5003;67429;51.596;-3.264;2023-07-20T10:24:25;13;13;
78063;PMS5003;67429;51.596;-3.264;2023-07-20T10:26:51;13;13;
78063;PMS5003;67429;51.596;-3.264;2023-07-20T10:29:17;14;14;
78063;PMS5003;67429;51.596;-3.264;2023-07-20T10:31:42;14;14;
78063;PMS5003;67429;51.596;-3.264;2023-07-20T10:34:08;11;11;
78063;PMS5003;67429;51.596;-3.264;2023-07-20T10:36:34;13;12;
78063;PMS5003;67429;51.596;-3.264;2023-07-20T10:38:59;12;10;
78063;PMS5003;67429;51.596;-3.264;2023-07-20T10:41:28;10;9;
78063;PMS5003;67429;51.596;-3.264;2023-07-20T10:43:49;11;11;
78063;PMS5003;67429;51.596;-3.264;2023-07-20T10:46:15;9;9;
78063;PMS5003;67429;51.596;-3.264;2023-07-20T10:51:09;12;11;
78063;PMS5003;67429;51.596;-3.264;2023-07-20T10:53:31;9;9;
78063;PMS5003;67429;51.596;-3.264;2023-07-20T10:58:22;10;10;
78063;PMS5003;67429;51.596;-3.264;2023-07-20T11:00:55;11;10;
78063;PMS5003;67429;51.596;-3.264;2023-07-20T11:03:12;12;12;
78063;PMS5003;67429;51.596;-3.264;2023-07-20T11:05:38;11;11;
78063;PMS5003;67429;51.596;-3.264;2023-07-20T11:08:04;9;9;
78063;PMS5003;67429;51.596;-3.264;2023-07-20T11:10:29;11;10;
78063;PMS5003;67429;51.596;-3.264;2023-07-20T11:15:21;10;10;
78063;PMS5003;67429;51.596;-3.264;2023-07-20T11:17:45;10;10;
78063;PMS5003;67429;51.596;-3.264;2023-07-20T11:20:10;12;11;
78063;PMS5003;67429;51.596;-3.264;2023-07-20T11:22:37;12;12;
78063;PMS5003;67429;51.596;-3.264;2023-07-20T11:25:01;10;9;
78063;PMS5003;67429;51.596;-3.264;2023-07-20T11:27:26;10;10;
78063;PMS5003;67429;51.596;-3.264;2023-07-20T11:29:52;13;12;
78063;PMS5003;67429;51.596;-3.264;2023-07-20T11:32:20;10;10;
78063;PMS5003;67429;51.596;-3.264;2023-07-20T11:34:42;13;12;
78063;PMS5003;67429;51.596;-3.264;2023-07-20T11:37:10;16;14;
78063;PMS5003;67429;51.596;-3.264;2023-07-20T11:39:34;15;15;
78063;PMS5003;67429;51.596;-3.264;2023-07-20T11:41:59;13;13;
78063;PMS5003;67429;51.596;-3.264;2023-07-20T11:44:26;16;14;
78063;PMS5003;67429;51.596;-3.264;2023-07-20T11:46:50;16;14;
78063;PMS5003;67429;51.596;-3.264;2023-07-20T11:49:15;18;18;
78063;PMS5003;67429;51.596;-3.264;2023-07-20T11:51:41;14;14;
78063;PMS5003;67429;51.596;-3.264;2023-07-20T11:54:06;14;13;
78063;PMS5003;67429;51.596;-3.264;2023-07-20T11:56:33;16;15;
78063;PMS5003;67429;51.596;-3.264;2023-07-20T11:58:57;18;16;
78063;PMS5003;67429;51.596;-3.264;2023-07-20T12:01:23;15;15;
78063;PMS5003;67429;51.596;-3.264;2023-07-20T12:03:47;16;16;
78063;PMS5003;67429;51.596;-3.264;2023-07-20T12:06:14;15;15;
78063;PMS5003;67429;51.596;-3.264;2023-07-20T12:08:38;16;15;
78063;PMS5003;67429;51.596;-3.264;2023-07-20T12:11:05;14;13;
78063;PMS5003;67429;51.596;-3.264;2023-07-20T12:13:35;11;11;
78063;PMS5003;67429;51.596;-3.264;2023-07-20T12:15:56;12;12;
78063;PMS5003;67429;51.596;-3.264;2023-07-20T12:18:22;10;10;
78063;PMS5003;67429;51.596;-3.264;2023-07-20T12:20:46;12;11;
78063;PMS5003;67429;51.596;-3.264;2023-07-20T12:23:11;9;9;
78063;PMS5003;67429;51.596;-3.264;2023-07-20T12:25:37;13;12;
78063;PMS5003;67429;51.596;-3.264;2023-07-20T12:28:02;11;10;
78063;PMS5003;67429;51.596;-3.264;2023-07-20T12:30:29;14;14;
78063;PMS5003;67429;51.596;-3.264;2023-07-20T12:32:58;9;9;
78063;PMS5003;67429;51.596;-3.264;2023-07-20T12:35:18;6;6;
78063;PMS5003;67429;51.596;-3.264;2023-07-20T12:37:44;5;5;
78063;PMS5003;67429;51.596;-3.264;2023-07-20T12:40:09;7;7;
78063;PMS5003;67429;51.596;-3.264;2023-07-20T12:42:34;5;5;
78063;PMS5003;67429;51.596;-3.264;2023-07-20T12:44:59;4;4;
78063;PMS5003;67429;51.596;-3.264;2023-07-20T12:47:25;5;5;
78063;PMS5003;67429;51.596;-3.264;2023-07-20T12:49:50;5;5;
78063;PMS5003;67429;51.596;-3.264;2023-07-20T12:52:17;6;6;
78063;PMS5003;67429;51.596;-3.264;2023-07-20T12:54:43;5;5;
78063;PMS5003;67429;51.596;-3.264;2023-07-20T12:57:06;6;6;
78063;PMS5003;67429;51.596;-3.264;2023-07-20T12:59:32;5;5;
78063;PMS5003;67429;51.596;-3.264;2023-07-20T13:01:57;6;6;
78063;PMS5003;67429;51.596;-3.264;2023-07-20T13:04:22;7;7;
78063;PMS5003;67429;51.596;-3.264;2023-07-20T13:06:49;4;4;
78063;PMS5003;67429;51.596;-3.264;2023-07-20T13:09:13;6;6;
78063;PMS5003;67429;51.596;-3.264;2023-07-20T13:11:38;5;5;
78063;PMS5003;67429;51.596;-3.264;2023-07-20T13:14:04;7;5;
78063;PMS5003;67429;51.596;-3.264;2023-07-20T13:16:30;5;5;
78063;PMS5003;67429;51.596;-3.264;2023-07-20T13:18:55;5;5;
78063;PMS5003;67429;51.596;-3.264;2023-07-20T13:21:20;6;6;
78063;PMS5003;67429;51.596;-3.264;2023-07-20T13:23:47;6;5;
78063;PMS5003;67429;51.596;-3.264;2023-07-20T13:26:12;5;5;
78063;PMS5003;67429;51.596;-3.264;2023-07-20T13:28:36;9;6;
78063;PMS5003;67429;51.596;-3.264;2023-07-20T13:31:02;7;7;
78063;PMS5003;67429;51.596;-3.264;2023-07-20T13:33:27;5;5;
78063;PMS5003;67429;51.596;-3.264;2023-07-20T13:35:53;5;5;
78063;PMS5003;67429;51.596;-3.264;2023-07-20T13:38:19;6;6;
78063;PMS5003;67429;51.596;-3.264;2023-07-20T13:40:44;6;6;
78063;PMS5003;67429;51.596;-3.264;2023-07-20T13:43:09;5;5;
78063;PMS5003;67429;51.596;-3.264;2023-07-20T13:45:36;5;5;
78063;PMS5003;67429;51.596;-3.264;2023-07-20T13:48:00;4;4;
78063;PMS5003;67429;51.596;-3.264;2023-07-20T13:50:26;5;5;
78063;PMS5003;67429;51.596;-3.264;2023-07-20T13:52:51;5;5;
78063;PMS5003;67429;51.596;-3.264;2023-07-20T13:55:19;5;5;
78063;PMS5003;67429;51.596;-3.264;2023-07-20T13:57:42;3;3;
78063;PMS5003;67429;51.596;-3.264;2023-07-20T14:00:10;4;4;
78063;PMS5003;67429;51.596;-3.264;2023-07-20T14:02:33;4;4;
78063;PMS5003;67429;51.596;-3.264;2023-07-20T14:04:59;4;4;
78063;PMS5003;67429;51.596;-3.264;2023-07-20T14:07:24;4;3;
78063;PMS5003;67429;51.596;-3.264;2023-07-20T14:09:50;4;4;
78063;PMS5003;67429;51.596;-3.264;2023-07-20T14:12:16;4;4;
78063;PMS5003;67429;51.596;-3.264;2023-07-20T14:14:41;3;3;
78063;PMS5003;67429;51.596;-3.264;2023-07-20T14:17:06;5;5;
78063;PMS5003;67429;51.596;-3.264;2023-07-20T14:19:32;5;4;
78063;PMS5003;67429;51.596;-3.264;2023-07-20T14:21:57;3;3;
78063;PMS5003;67429;51.596;-3.264;2023-07-20T14:24:22;4;4;
78063;PMS5003;67429;51.596;-3.264;2023-07-20T14:26:48;4;4;
78063;PMS5003;67429;51.596;-3.264;2023-07-20T14:29:14;4;4;
78063;PMS5003;67429;51.596;-3.264;2023-07-20T14:31:39;4;4;
78063;PMS5003;67429;51.596;-3.264;2023-07-20T14:34:04;5;5;
78063;PMS5003;67429;51.596;-3.264;2023-07-20T14:36:31;4;4;
78063;PMS5003;67429;51.596;-3.264;2023-07-20T14:38:55;4;4;
78063;PMS5003;67429;51.596;-3.264;2023-07-20T14:41:21;3;3;
78063;PMS5003;67429;51.596;-3.264;2023-07-20T14:43:46;5;5;
78063;PMS5003;67429;51.596;-3.264;2023-07-20T14:46:11;4;4;
78063;PMS5003;67429;51.596;-3.264;2023-07-20T14:48:37;4;4;
78063;PMS5003;67429;51.596;-3.264;2023-07-20T14:51:03;3;3;
78063;PMS5003;67429;51.596;-3.264;2023-07-20T14:53:28;4;3;
78063;PMS5003;67429;51.596;-3.264;2023-07-20T14:55:59;4;4;
78063;PMS5003;67429;51.596;-3.264;2023-07-20T14:58:18;3;3;
78063;PMS5003;67429;51.596;-3.264;2023-07-20T15:00:44;3;3;
78063;PMS5003;67429;51.596;-3.264;2023-07-20T15:03:09;4;4;
78063;PMS5003;67429;51.596;-3.264;2023-07-20T15:05:35;2;2;
78063;PMS5003;67429;51.596;-3.264;2023-07-20T15:08:00;4;4;
78063;PMS5003;67429;51.596;-3.264;2023-07-20T15:10:26;5;5;
78063;PMS5003;67429;51.596;-3.264;2023-07-20T15:12:51;3;3;
78063;PMS5003;67429;51.596;-3.264;2023-07-20T15:15:16;3;3;
78063;PMS5003;67429;51.596;-3.264;2023-07-20T15:17:42;3;3;
78063;PMS5003;67429;51.596;-3.264;2023-07-20T15:20:11;3;3;
78063;PMS5003;67429;51.596;-3.264;2023-07-20T15:22:33;2;2;
78063;PMS5003;67429;51.596;-3.264;2023-07-20T15:24:58;2;2;
78063;PMS5003;67429;51.596;-3.264;2023-07-20T15:27:24;4;2;
78063;PMS5003;67429;51.596;-3.264;2023-07-20T15:29:49;4;4;
78063;PMS5003;67429;51.596;-3.264;2023-07-20T15:32:14;3;3;
78063;PMS5003;67429;51.596;-3.264;2023-07-20T15:34:39;2;2;
78063;PMS5003;67429;51.596;-3.264;2023-07-20T15:37:05;3;3;
78063;PMS5003;67429;51.596;-3.264;2023-07-20T15:39:30;2;2;
78063;PMS5003;67429;51.596;-3.264;2023-07-20T15:41:56;4;4;
78063;PMS5003;67429;51.596;-3.264;2023-07-20T15:44:21;3;3;
78063;PMS5003;67429;51.596;-3.264;2023-07-20T15:46:48;2;2;
78063;PMS5003;67429;51.596;-3.264;2023-07-20T15:49:12;3;3;
78063;PMS5003;67429;51.596;-3.264;2023-07-20T15:51:37;3;3;
78063;PMS5003;67429;51.596;-3.264;2023-07-20T15:54:04;3;3;
78063;PMS5003;67429;51.596;-3.264;2023-07-20T15:56:29;3;3;
78063;PMS5003;67429;51.596;-3.264;2023-07-20T15:58:54;2;2;
78063;PMS5003;67429;51.596;-3.264;2023-07-20T16:01:19;2;2;
78063;PMS5003;67429;51.596;-3.264;2023-07-20T16:03:45;4;4;
78063;PMS5003;67429;51.596;-3.264;2023-07-20T16:06:10;5;5;
78063;PMS5003;67429;51.596;-3.264;2023-07-20T16:08:35;3;3;
78063;PMS5003;67429;51.596;-3.264;2023-07-20T16:11:01;2;2;
78063;PMS5003;67429;51.596;-3.264;2023-07-20T16:13:26;3;3;
78063;PMS5003;67429;51.596;-3.264;2023-07-20T16:15:52;3;3;
78063;PMS5003;67429;51.596;-3.264;2023-07-20T16:18:17;3;3;
78063;PMS5003;67429;51.596;-3.264;2023-07-20T16:20:44;5;5;
78063;PMS5003;67429;51.596;-3.264;2023-07-20T16:23:08;2;2;
78063;PMS5003;67429;51.596;-3.264;2023-07-20T16:25:34;3;3;